sensor_id;sensor_type;location;lat;lon;timestamp;temperature;humidity
66035;HTU21D;52805;51.074;5.842;2022-09-29T00:01:28;10.36;81.17
66035;HTU21D;52805;51.074;5.842;2022-09-29T00:03:53;10.33;81.28
66035;HTU21D;52805;51.074;5.842;2022-09-29T00:06:19;10.30;81.36
66035;HTU21D;52805;51.074;5.842;2022-09-29T00:08:45;10.29;81.30
66035;HTU21D;52805;51.074;5.842;2022-09-29T00:11:16;10.29;81.20
66035;HTU21D;52805;51.074;5.842;2022-09-29T00:13:43;10.29;81.28
66035;HTU21D;52805;51.074;5.842;2022-09-29T00:16:10;10.27;81.34
66035;HTU21D;52805;51.074;5.842;2022-09-29T00:18:39;10.29;81.21
66035;HTU21D;52805;51.074;5.842;2022-09-29T00:21:14;10.27;81.40
66035;HTU21D;52805;51.074;5.842;2022-09-29T00:23:40;10.25;81.42
66035;HTU21D;52805;51.074;5.842;2022-09-29T00:26:07;10.23;81.46
66035;HTU21D;52805;51.074;5.842;2022-09-29T00:28:34;10.20;81.62
66035;HTU21D;52805;51.074;5.842;2022-09-29T00:31:02;10.19;81.82
66035;HTU21D;52805;51.074;5.842;2022-09-29T00:33:32;10.16;81.85
66035;HTU21D;52805;51.074;5.842;2022-09-29T00:36:08;10.15;81.83
66035;HTU21D;52805;51.074;5.842;2022-09-29T00:38:35;10.13;81.69
66035;HTU21D;52805;51.074;5.842;2022-09-29T00:41:01;10.08;81.71
66035;HTU21D;52805;51.074;5.842;2022-09-29T00:48:48;10.04;81.97
66035;HTU21D;52805;51.074;5.842;2022-09-29T00:51:16;10.01;81.89
66035;HTU21D;52805;51.074;5.842;2022-09-29T00:53:44;9.99;81.97
66035;HTU21D;52805;51.074;5.842;2022-09-29T00:56:14;9.97;82.05
66035;HTU21D;52805;51.074;5.842;2022-09-29T00:58:44;9.95;82.08
66035;HTU21D;52805;51.074;5.842;2022-09-29T01:01:14;9.92;82.11
66035;HTU21D;52805;51.074;5.842;2022-09-29T01:03:44;9.93;82.07
66035;HTU21D;52805;51.074;5.842;2022-09-29T01:06:23;9.91;81.72
66035;HTU21D;52805;51.074;5.842;2022-09-29T01:11:27;9.79;81.96
66035;HTU21D;52805;51.074;5.842;2022-09-29T01:13:55;9.75;82.17
66035;HTU21D;52805;51.074;5.842;2022-09-29T01:16:25;9.74;82.13
66035;HTU21D;52805;51.074;5.842;2022-09-29T01:18:52;9.71;82.29
66035;HTU21D;52805;51.074;5.842;2022-09-29T01:29:31;9.66;82.45
66035;HTU21D;52805;51.074;5.842;2022-09-29T01:37:28;9.61;82.50
66035;HTU21D;52805;51.074;5.842;2022-09-29T01:40:18;9.59;82.27
66035;HTU21D;52805;51.074;5.842;2022-09-29T01:42:54;9.57;82.30
66035;HTU21D;52805;51.074;5.842;2022-09-29T01:45:32;9.56;82.17
66035;HTU21D;52805;51.074;5.842;2022-09-29T01:48:04;9.54;82.07
66035;HTU21D;52805;51.074;5.842;2022-09-29T01:50:38;9.51;81.97
66035;HTU21D;52805;51.074;5.842;2022-09-29T01:53:13;9.47;82.07
66035;HTU21D;52805;51.074;5.842;2022-09-29T01:55:52;9.46;82.13
66035;HTU21D;52805;51.074;5.842;2022-09-29T01:58:29;9.42;82.04
66035;HTU21D;52805;51.074;5.842;2022-09-29T02:01:04;9.42;81.97
66035;HTU21D;52805;51.074;5.842;2022-09-29T02:03:43;9.38;82.00
66035;HTU21D;52805;51.074;5.842;2022-09-29T02:06:21;9.35;82.05
66035;HTU21D;52805;51.074;5.842;2022-09-29T02:08:53;9.34;81.94
66035;HTU21D;52805;51.074;5.842;2022-09-29T02:11:19;9.31;82.04
66035;HTU21D;52805;51.074;5.842;2022-09-29T02:14:01;9.26;82.07
66035;HTU21D;52805;51.074;5.842;2022-09-29T02:16:31;9.23;82.24
66035;HTU21D;52805;51.074;5.842;2022-09-29T02:19:01;9.22;82.22
66035;HTU21D;52805;51.074;5.842;2022-09-29T02:21:28;9.21;82.33
66035;HTU21D;52805;51.074;5.842;2022-09-29T02:23:54;9.18;82.38
66035;HTU21D;52805;51.074;5.842;2022-09-29T02:26:23;9.18;82.37
66035;HTU21D;52805;51.074;5.842;2022-09-29T02:28:50;9.18;82.36
66035;HTU21D;52805;51.074;5.842;2022-09-29T02:31:17;9.18;82.17
66035;HTU21D;52805;51.074;5.842;2022-09-29T02:33:43;9.17;82.16
66035;HTU21D;52805;51.074;5.842;2022-09-29T02:39:14;9.07;82.23
66035;HTU21D;52805;51.074;5.842;2022-09-29T02:42:05;9.06;82.19
66035;HTU21D;52805;51.074;5.842;2022-09-29T02:53:31;8.94;82.11
66035;HTU21D;52805;51.074;5.842;2022-09-29T02:56:06;8.92;82.36
66035;HTU21D;52805;51.074;5.842;2022-09-29T02:59:00;8.90;82.53
66035;HTU21D;52805;51.074;5.842;2022-09-29T03:01:31;8.87;82.65
66035;HTU21D;52805;51.074;5.842;2022-09-29T03:03:58;8.83;82.53
66035;HTU21D;52805;51.074;5.842;2022-09-29T03:06:24;8.79;82.58
66035;HTU21D;52805;51.074;5.842;2022-09-29T03:08:50;8.77;82.50
66035;HTU21D;52805;51.074;5.842;2022-09-29T03:11:15;8.76;82.49
66035;HTU21D;52805;51.074;5.842;2022-09-29T03:13:41;8.74;82.36
66035;HTU21D;52805;51.074;5.842;2022-09-29T03:16:06;8.72;82.42
66035;HTU21D;52805;51.074;5.842;2022-09-29T03:18:32;8.68;82.45
66035;HTU21D;52805;51.074;5.842;2022-09-29T03:20:58;8.68;82.30
66035;HTU21D;52805;51.074;5.842;2022-09-29T03:23:23;8.66;82.17
66035;HTU21D;52805;51.074;5.842;2022-09-29T03:25:49;8.65;82.13
66035;HTU21D;52805;51.074;5.842;2022-09-29T03:28:15;8.63;82.11
66035;HTU21D;52805;51.074;5.842;2022-09-29T03:30:41;8.62;82.01
66035;HTU21D;52805;51.074;5.842;2022-09-29T03:33:07;8.60;81.96
66035;HTU21D;52805;51.074;5.842;2022-09-29T03:35:32;8.58;82.04
66035;HTU21D;52805;51.074;5.842;2022-09-29T03:37:59;8.55;82.10
66035;HTU21D;52805;51.074;5.842;2022-09-29T03:40:26;8.55;81.91
66035;HTU21D;52805;51.074;5.842;2022-09-29T03:42:52;8.55;81.69
66035;HTU21D;52805;51.074;5.842;2022-09-29T03:45:18;8.50;81.65
66035;HTU21D;52805;51.074;5.842;2022-09-29T03:47:43;8.48;81.63
66035;HTU21D;52805;51.074;5.842;2022-09-29T03:50:11;8.46;81.66
66035;HTU21D;52805;51.074;5.842;2022-09-29T03:52:37;8.46;81.53
66035;HTU21D;52805;51.074;5.842;2022-09-29T03:55:03;8.43;81.34
66035;HTU21D;52805;51.074;5.842;2022-09-29T03:57:29;8.39;81.35
66035;HTU21D;52805;51.074;5.842;2022-09-29T03:59:54;8.33;81.49
66035;HTU21D;52805;51.074;5.842;2022-09-29T04:02:21;8.29;81.48
66035;HTU21D;52805;51.074;5.842;2022-09-29T04:04:46;8.28;81.45
66035;HTU21D;52805;51.074;5.842;2022-09-29T04:07:12;8.24;81.45
66035;HTU21D;52805;51.074;5.842;2022-09-29T04:09:38;8.20;81.52
66035;HTU21D;52805;51.074;5.842;2022-09-29T04:12:03;8.17;81.71
66035;HTU21D;52805;51.074;5.842;2022-09-29T04:14:29;8.16;81.73
66035;HTU21D;52805;51.074;5.842;2022-09-29T04:16:55;8.18;81.75
66035;HTU21D;52805;51.074;5.842;2022-09-29T04:19:21;8.17;81.67
66035;HTU21D;52805;51.074;5.842;2022-09-29T04:21:46;8.15;81.79
66035;HTU21D;52805;51.074;5.842;2022-09-29T04:24:12;8.12;81.92
66035;HTU21D;52805;51.074;5.842;2022-09-29T04:26:38;8.12;81.94
66035;HTU21D;52805;51.074;5.842;2022-09-29T04:29:04;8.11;81.88
66035;HTU21D;52805;51.074;5.842;2022-09-29T04:31:30;8.09;81.95
66035;HTU21D;52805;51.074;5.842;2022-09-29T04:33:56;8.11;81.77
66035;HTU21D;52805;51.074;5.842;2022-09-29T04:36:22;8.08;81.67
66035;HTU21D;52805;51.074;5.842;2022-09-29T04:38:47;8.05;81.72
66035;HTU21D;52805;51.074;5.842;2022-09-29T04:41:16;8.03;81.75
66035;HTU21D;52805;51.074;5.842;2022-09-29T04:43:42;8.01;81.88
66035;HTU21D;52805;51.074;5.842;2022-09-29T04:46:09;7.99;81.81
66035;HTU21D;52805;51.074;5.842;2022-09-29T04:48:35;7.98;81.89
66035;HTU21D;52805;51.074;5.842;2022-09-29T04:51:03;7.97;81.91
66035;HTU21D;52805;51.074;5.842;2022-09-29T04:53:29;7.97;81.96
66035;HTU21D;52805;51.074;5.842;2022-09-29T04:55:54;7.94;82.07
66035;HTU21D;52805;51.074;5.842;2022-09-29T04:58:20;7.96;82.07
66035;HTU21D;52805;51.074;5.842;2022-09-29T05:00:46;7.94;82.11
66035;HTU21D;52805;51.074;5.842;2022-09-29T05:03:11;7.91;82.18
66035;HTU21D;52805;51.074;5.842;2022-09-29T05:05:37;7.92;82.19
66035;HTU21D;52805;51.074;5.842;2022-09-29T05:08:03;7.93;82.04
66035;HTU21D;52805;51.074;5.842;2022-09-29T05:10:30;7.93;82.01
66035;HTU21D;52805;51.074;5.842;2022-09-29T05:12:55;7.90;82.01
66035;HTU21D;52805;51.074;5.842;2022-09-29T05:15:21;7.87;82.02
66035;HTU21D;52805;51.074;5.842;2022-09-29T05:17:47;7.85;82.09
66035;HTU21D;52805;51.074;5.842;2022-09-29T05:20:13;7.82;82.13
66035;HTU21D;52805;51.074;5.842;2022-09-29T05:22:40;7.83;82.14
66035;HTU21D;52805;51.074;5.842;2022-09-29T05:25:06;7.82;82.10
66035;HTU21D;52805;51.074;5.842;2022-09-29T05:27:35;7.82;82.12
66035;HTU21D;52805;51.074;5.842;2022-09-29T05:30:01;7.83;82.09
66035;HTU21D;52805;51.074;5.842;2022-09-29T05:32:27;7.83;82.17
66035;HTU21D;52805;51.074;5.842;2022-09-29T05:34:53;7.83;82.13
66035;HTU21D;52805;51.074;5.842;2022-09-29T05:37:18;7.81;82.19
66035;HTU21D;52805;51.074;5.842;2022-09-29T05:39:44;7.81;82.29
66035;HTU21D;52805;51.074;5.842;2022-09-29T05:42:12;7.84;82.29
66035;HTU21D;52805;51.074;5.842;2022-09-29T05:44:38;7.83;82.40
66035;HTU21D;52805;51.074;5.842;2022-09-29T05:47:03;7.83;82.46
66035;HTU21D;52805;51.074;5.842;2022-09-29T05:49:29;7.85;82.33
66035;HTU21D;52805;51.074;5.842;2022-09-29T05:51:58;7.83;82.42
66035;HTU21D;52805;51.074;5.842;2022-09-29T05:54:24;7.83;82.57
66035;HTU21D;52805;51.074;5.842;2022-09-29T05:56:52;7.82;82.58
66035;HTU21D;52805;51.074;5.842;2022-09-29T05:59:17;7.83;82.63
66035;HTU21D;52805;51.074;5.842;2022-09-29T06:01:43;7.83;82.44
66035;HTU21D;52805;51.074;5.842;2022-09-29T06:04:09;7.83;82.39
66035;HTU21D;52805;51.074;5.842;2022-09-29T06:06:34;7.83;82.36
66035;HTU21D;52805;51.074;5.842;2022-09-29T06:09:05;7.84;82.36
66035;HTU21D;52805;51.074;5.842;2022-09-29T06:11:31;7.86;82.43
66035;HTU21D;52805;51.074;5.842;2022-09-29T06:13:57;7.86;82.41
66035;HTU21D;52805;51.074;5.842;2022-09-29T06:16:26;7.90;82.46
66035;HTU21D;52805;51.074;5.842;2022-09-29T06:18:53;7.91;82.41
66035;HTU21D;52805;51.074;5.842;2022-09-29T06:21:22;7.92;82.53
66035;HTU21D;52805;51.074;5.842;2022-09-29T06:23:50;7.94;82.62
66035;HTU21D;52805;51.074;5.842;2022-09-29T06:26:18;7.98;82.84
66035;HTU21D;52805;51.074;5.842;2022-09-29T06:28:44;8.02;82.80
66035;HTU21D;52805;51.074;5.842;2022-09-29T06:31:12;8.06;82.91
66035;HTU21D;52805;51.074;5.842;2022-09-29T06:33:38;8.09;83.02
66035;HTU21D;52805;51.074;5.842;2022-09-29T06:36:17;8.13;83.16
66035;HTU21D;52805;51.074;5.842;2022-09-29T06:39:04;8.16;83.26
66035;HTU21D;52805;51.074;5.842;2022-09-29T06:41:30;8.19;83.42
66035;HTU21D;52805;51.074;5.842;2022-09-29T06:43:56;8.23;83.42
66035;HTU21D;52805;51.074;5.842;2022-09-29T06:46:22;8.27;83.50
66035;HTU21D;52805;51.074;5.842;2022-09-29T06:48:48;8.31;83.61
66035;HTU21D;52805;51.074;5.842;2022-09-29T06:51:13;8.35;83.65
66035;HTU21D;52805;51.074;5.842;2022-09-29T06:53:39;8.41;83.71
66035;HTU21D;52805;51.074;5.842;2022-09-29T06:56:06;8.45;83.69
66035;HTU21D;52805;51.074;5.842;2022-09-29T06:58:34;8.49;83.79
66035;HTU21D;52805;51.074;5.842;2022-09-29T07:01:00;8.56;83.87
66035;HTU21D;52805;51.074;5.842;2022-09-29T07:03:27;8.61;83.97
66035;HTU21D;52805;51.074;5.842;2022-09-29T07:05:53;8.67;84.06
66035;HTU21D;52805;51.074;5.842;2022-09-29T07:08:18;8.73;84.07
66035;HTU21D;52805;51.074;5.842;2022-09-29T07:10:45;8.81;84.10
66035;HTU21D;52805;51.074;5.842;2022-09-29T07:13:10;8.89;83.88
66035;HTU21D;52805;51.074;5.842;2022-09-29T07:15:36;8.97;83.87
66035;HTU21D;52805;51.074;5.842;2022-09-29T07:18:03;9.07;83.77
66035;HTU21D;52805;51.074;5.842;2022-09-29T07:20:30;9.22;83.75
66035;HTU21D;52805;51.074;5.842;2022-09-29T07:22:58;9.42;83.61
66035;HTU21D;52805;51.074;5.842;2022-09-29T07:25:24;9.60;83.31
66035;HTU21D;52805;51.074;5.842;2022-09-29T07:27:50;9.66;82.99
66035;HTU21D;52805;51.074;5.842;2022-09-29T07:30:17;9.70;82.67
66035;HTU21D;52805;51.074;5.842;2022-09-29T07:32:43;9.74;82.44
66035;HTU21D;52805;51.074;5.842;2022-09-29T07:35:09;9.77;82.34
66035;HTU21D;52805;51.074;5.842;2022-09-29T07:37:35;9.78;82.33
66035;HTU21D;52805;51.074;5.842;2022-09-29T07:40:00;9.80;82.39
66035;HTU21D;52805;51.074;5.842;2022-09-29T07:42:29;9.84;82.42
66035;HTU21D;52805;51.074;5.842;2022-09-29T07:44:55;9.86;82.37
66035;HTU21D;52805;51.074;5.842;2022-09-29T07:47:21;9.91;82.57
66035;HTU21D;52805;51.074;5.842;2022-09-29T07:49:47;9.95;82.67
66035;HTU21D;52805;51.074;5.842;2022-09-29T07:52:14;9.99;82.59
66035;HTU21D;52805;51.074;5.842;2022-09-29T07:54:39;10.03;82.76
66035;HTU21D;52805;51.074;5.842;2022-09-29T07:57:05;10.07;82.94
66035;HTU21D;52805;51.074;5.842;2022-09-29T07:59:31;10.11;83.10
66035;HTU21D;52805;51.074;5.842;2022-09-29T08:01:57;10.18;83.02
66035;HTU21D;52805;51.074;5.842;2022-09-29T08:04:23;10.25;83.09
66035;HTU21D;52805;51.074;5.842;2022-09-29T08:06:49;10.31;83.05
66035;HTU21D;52805;51.074;5.842;2022-09-29T08:09:15;10.38;83.02
66035;HTU21D;52805;51.074;5.842;2022-09-29T08:11:42;10.44;83.07
66035;HTU21D;52805;51.074;5.842;2022-09-29T08:14:09;10.51;82.83
66035;HTU21D;52805;51.074;5.842;2022-09-29T08:16:36;10.57;82.62
66035;HTU21D;52805;51.074;5.842;2022-09-29T08:19:03;10.64;82.39
66035;HTU21D;52805;51.074;5.842;2022-09-29T08:21:31;10.67;82.32
66035;HTU21D;52805;51.074;5.842;2022-09-29T08:24:02;10.74;82.06
66035;HTU21D;52805;51.074;5.842;2022-09-29T08:26:34;10.81;81.88
66035;HTU21D;52805;51.074;5.842;2022-09-29T08:29:03;10.89;81.81
66035;HTU21D;52805;51.074;5.842;2022-09-29T08:31:29;10.95;81.70
66035;HTU21D;52805;51.074;5.842;2022-09-29T08:33:56;11.01;81.43
66035;HTU21D;52805;51.074;5.842;2022-09-29T08:36:23;11.10;81.24
66035;HTU21D;52805;51.074;5.842;2022-09-29T08:38:51;11.15;81.13
66035;HTU21D;52805;51.074;5.842;2022-09-29T08:41:32;11.23;81.00
66035;HTU21D;52805;51.074;5.842;2022-09-29T08:47:19;11.38;80.52
66035;HTU21D;52805;51.074;5.842;2022-09-29T08:49:56;11.45;80.46
66035;HTU21D;52805;51.074;5.842;2022-09-29T08:52:30;11.55;80.12
66035;HTU21D;52805;51.074;5.842;2022-09-29T08:57:35;11.68;79.53
66035;HTU21D;52805;51.074;5.842;2022-09-29T09:00:02;11.73;79.32
66035;HTU21D;52805;51.074;5.842;2022-09-29T09:02:36;11.76;78.82
66035;HTU21D;52805;51.074;5.842;2022-09-29T09:05:55;11.85;78.56
66035;HTU21D;52805;51.074;5.842;2022-09-29T09:14:21;12.06;77.96
66035;HTU21D;52805;51.074;5.842;2022-09-29T09:28:05;12.58;77.68
66035;HTU21D;52805;51.074;5.842;2022-09-29T09:31:01;12.73;77.40
66035;HTU21D;52805;51.074;5.842;2022-09-29T09:33:56;12.84;76.73
66035;HTU21D;52805;51.074;5.842;2022-09-29T09:36:41;12.91;76.12
66035;HTU21D;52805;51.074;5.842;2022-09-29T09:39:18;13.00;76.13
66035;HTU21D;52805;51.074;5.842;2022-09-29T09:41:49;13.08;75.51
66035;HTU21D;52805;51.074;5.842;2022-09-29T09:44:25;13.11;75.32
66035;HTU21D;52805;51.074;5.842;2022-09-29T09:46:57;13.18;75.03
66035;HTU21D;52805;51.074;5.842;2022-09-29T09:49:44;13.23;75.10
66035;HTU21D;52805;51.074;5.842;2022-09-29T09:54:57;13.35;74.73
66035;HTU21D;52805;51.074;5.842;2022-09-29T10:05:18;13.68;73.80
66035;HTU21D;52805;51.074;5.842;2022-09-29T10:07:45;13.78;73.59
66035;HTU21D;52805;51.074;5.842;2022-09-29T10:10:22;13.90;72.86
66035;HTU21D;52805;51.074;5.842;2022-09-29T10:13:02;13.93;72.46
66035;HTU21D;52805;51.074;5.842;2022-09-29T10:20:51;14.23;71.50
66035;HTU21D;52805;51.074;5.842;2022-09-29T10:23:29;14.30;71.00
66035;HTU21D;52805;51.074;5.842;2022-09-29T10:28:47;14.47;70.58
66035;HTU21D;52805;51.074;5.842;2022-09-29T10:31:22;14.54;70.19
66035;HTU21D;52805;51.074;5.842;2022-09-29T10:33:51;14.64;70.00
66035;HTU21D;52805;51.074;5.842;2022-09-29T10:36:18;14.75;69.66
66035;HTU21D;52805;51.074;5.842;2022-09-29T10:38:49;14.72;69.22
66035;HTU21D;52805;51.074;5.842;2022-09-29T10:41:15;14.74;68.92
66035;HTU21D;52805;51.074;5.842;2022-09-29T10:43:43;14.80;68.24
66035;HTU21D;52805;51.074;5.842;2022-09-29T10:46:34;14.81;67.62
66035;HTU21D;52805;51.074;5.842;2022-09-29T10:49:17;14.89;67.90
66035;HTU21D;52805;51.074;5.842;2022-09-29T10:54:23;15.06;66.69
66035;HTU21D;52805;51.074;5.842;2022-09-29T10:56:54;15.11;66.57
66035;HTU21D;52805;51.074;5.842;2022-09-29T10:59:22;15.11;66.72
66035;HTU21D;52805;51.074;5.842;2022-09-29T11:01:54;15.14;66.18
66035;HTU21D;52805;51.074;5.842;2022-09-29T11:04:32;15.14;65.78
66035;HTU21D;52805;51.074;5.842;2022-09-29T11:07:10;15.18;65.17
66035;HTU21D;52805;51.074;5.842;2022-09-29T11:09:39;15.14;64.72
66035;HTU21D;52805;51.074;5.842;2022-09-29T11:12:31;15.06;64.21
66035;HTU21D;52805;51.074;5.842;2022-09-29T11:15:01;15.06;64.67
66035;HTU21D;52805;51.074;5.842;2022-09-29T11:17:38;15.10;64.34
66035;HTU21D;52805;51.074;5.842;2022-09-29T11:20:09;15.10;64.33
66035;HTU21D;52805;51.074;5.842;2022-09-29T11:25:49;15.19;63.41
66035;HTU21D;52805;51.074;5.842;2022-09-29T11:33:46;15.13;62.54
66035;HTU21D;52805;51.074;5.842;2022-09-29T11:36:33;15.07;62.47
66035;HTU21D;52805;51.074;5.842;2022-09-29T11:39:28;14.97;62.44
66035;HTU21D;52805;51.074;5.842;2022-09-29T11:45:22;14.82;62.60
66035;HTU21D;52805;51.074;5.842;2022-09-29T12:04:42;15.26;61.75
66035;HTU21D;52805;51.074;5.842;2022-09-29T12:10:38;15.41;61.51
66035;HTU21D;52805;51.074;5.842;2022-09-29T12:13:18;15.49;61.36
66035;HTU21D;52805;51.074;5.842;2022-09-29T12:16:15;15.59;61.24
66035;HTU21D;52805;51.074;5.842;2022-09-29T12:19:02;15.75;60.56
66035;HTU21D;52805;51.074;5.842;2022-09-29T12:21:35;15.98;59.96
66035;HTU21D;52805;51.074;5.842;2022-09-29T12:24:09;16.13;59.17
66035;HTU21D;52805;51.074;5.842;2022-09-29T12:26:38;16.19;58.10
66035;HTU21D;52805;51.074;5.842;2022-09-29T12:29:28;16.21;58.28
66035;HTU21D;52805;51.074;5.842;2022-09-29T12:31:59;16.46;58.32
66035;HTU21D;52805;51.074;5.842;2022-09-29T12:34:47;16.73;57.29
66035;HTU21D;52805;51.074;5.842;2022-09-29T12:37:31;16.98;56.89
66035;HTU21D;52805;51.074;5.842;2022-09-29T12:40:34;17.14;56.13
66035;HTU21D;52805;51.074;5.842;2022-09-29T12:43:28;17.16;56.00
66035;HTU21D;52805;51.074;5.842;2022-09-29T12:46:18;17.22;55.88
66035;HTU21D;52805;51.074;5.842;2022-09-29T12:51:32;17.54;55.78
66035;HTU21D;52805;51.074;5.842;2022-09-29T12:56:59;17.75;53.59
66035;HTU21D;52805;51.074;5.842;2022-09-29T13:14:14;17.79;53.81
66035;HTU21D;52805;51.074;5.842;2022-09-29T13:16:51;17.87;53.52
66035;HTU21D;52805;51.074;5.842;2022-09-29T13:20:01;17.94;53.19
66035;HTU21D;52805;51.074;5.842;2022-09-29T13:27:57;18.25;52.39
66035;HTU21D;52805;51.074;5.842;2022-09-29T13:30:32;18.32;52.32
66035;HTU21D;52805;51.074;5.842;2022-09-29T13:33:14;18.35;52.40
66035;HTU21D;52805;51.074;5.842;2022-09-29T13:35:46;18.41;52.02
66035;HTU21D;52805;51.074;5.842;2022-09-29T13:38:20;18.44;52.01
66035;HTU21D;52805;51.074;5.842;2022-09-29T13:59:40;18.05;51.90
66035;HTU21D;52805;51.074;5.842;2022-09-29T14:02:40;17.96;52.50
66035;HTU21D;52805;51.074;5.842;2022-09-29T14:10:38;17.87;53.27
66035;HTU21D;52805;51.074;5.842;2022-09-29T14:13:13;17.82;53.27
66035;HTU21D;52805;51.074;5.842;2022-09-29T14:15:50;17.76;53.34
66035;HTU21D;52805;51.074;5.842;2022-09-29T14:18:28;17.69;53.46
66035;HTU21D;52805;51.074;5.842;2022-09-29T14:21:04;17.66;53.36
66035;HTU21D;52805;51.074;5.842;2022-09-29T14:23:59;17.69;53.13
66035;HTU21D;52805;51.074;5.842;2022-09-29T14:29:15;17.66;52.78
66035;HTU21D;52805;51.074;5.842;2022-09-29T14:31:46;17.67;53.08
66035;HTU21D;52805;51.074;5.842;2022-09-29T14:34:17;17.66;53.12
66035;HTU21D;52805;51.074;5.842;2022-09-29T14:36:45;17.68;53.27
66035;HTU21D;52805;51.074;5.842;2022-09-29T14:39:14;17.80;53.22
66035;HTU21D;52805;51.074;5.842;2022-09-29T14:41:43;17.98;53.04
66035;HTU21D;52805;51.074;5.842;2022-09-29T14:44:22;18.14;52.78
66035;HTU21D;52805;51.074;5.842;2022-09-29T14:59:43;17.88;53.05
66035;HTU21D;52805;51.074;5.842;2022-09-29T15:04:41;17.67;53.14
66035;HTU21D;52805;51.074;5.842;2022-09-29T15:07:17;17.52;53.58
66035;HTU21D;52805;51.074;5.842;2022-09-29T15:09:54;17.37;53.88
66035;HTU21D;52805;51.074;5.842;2022-09-29T15:12:25;17.24;54.39
66035;HTU21D;52805;51.074;5.842;2022-09-29T15:14:55;17.16;54.62
66035;HTU21D;52805;51.074;5.842;2022-09-29T15:20:28;16.96;55.10
66035;HTU21D;52805;51.074;5.842;2022-09-29T15:25:37;16.81;55.70
66035;HTU21D;52805;51.074;5.842;2022-09-29T15:28:16;16.77;56.15
66035;HTU21D;52805;51.074;5.842;2022-09-29T15:30:48;16.75;56.70
66035;HTU21D;52805;51.074;5.842;2022-09-29T15:35:42;16.85;56.83
66035;HTU21D;52805;51.074;5.842;2022-09-29T15:38:25;16.80;56.93
66035;HTU21D;52805;51.074;5.842;2022-09-29T15:41:00;16.79;56.93
66035;HTU21D;52805;51.074;5.842;2022-09-29T15:43:50;16.70;57.13
66035;HTU21D;52805;51.074;5.842;2022-09-29T15:46:22;16.60;57.37
66035;HTU21D;52805;51.074;5.842;2022-09-29T15:49:13;16.59;57.48
66035;HTU21D;52805;51.074;5.842;2022-09-29T15:51:42;16.62;57.38
66035;HTU21D;52805;51.074;5.842;2022-09-29T15:54:12;16.66;57.04
66035;HTU21D;52805;51.074;5.842;2022-09-29T15:56:38;16.70;57.05
66035;HTU21D;52805;51.074;5.842;2022-09-29T15:59:53;16.76;56.93
66035;HTU21D;52805;51.074;5.842;2022-09-29T16:02:37;16.79;56.42
66035;HTU21D;52805;51.074;5.842;2022-09-29T16:05:09;16.78;56.08
66035;HTU21D;52805;51.074;5.842;2022-09-29T16:07:48;16.78;55.81
66035;HTU21D;52805;51.074;5.842;2022-09-29T16:10:25;16.81;55.76
66035;HTU21D;52805;51.074;5.842;2022-09-29T16:13:00;16.81;55.39
66035;HTU21D;52805;51.074;5.842;2022-09-29T16:15:35;16.75;55.36
66035;HTU21D;52805;51.074;5.842;2022-09-29T16:18:18;16.65;55.65
66035;HTU21D;52805;51.074;5.842;2022-09-29T16:20:45;16.58;55.95
66035;HTU21D;52805;51.074;5.842;2022-09-29T16:26:09;16.43;56.76
66035;HTU21D;52805;51.074;5.842;2022-09-29T16:29:05;16.32;57.48
66035;HTU21D;52805;51.074;5.842;2022-09-29T16:31:33;16.22;58.00
66035;HTU21D;52805;51.074;5.842;2022-09-29T16:34:00;16.15;58.44
66035;HTU21D;52805;51.074;5.842;2022-09-29T16:36:28;16.08;58.93
66035;HTU21D;52805;51.074;5.842;2022-09-29T16:39:05;16.03;59.54
66035;HTU21D;52805;51.074;5.842;2022-09-29T16:41:36;15.96;60.12
66035;HTU21D;52805;51.074;5.842;2022-09-29T16:52:46;15.58;62.32
66035;HTU21D;52805;51.074;5.842;2022-09-29T16:54:48;15.45;62.70
66035;HTU21D;52805;51.074;5.842;2022-09-29T16:57:27;15.38;63.11
66035;HTU21D;52805;51.074;5.842;2022-09-29T17:00:14;15.27;63.65
66035;HTU21D;52805;51.074;5.842;2022-09-29T17:02:40;15.17;64.14
66035;HTU21D;52805;51.074;5.842;2022-09-29T17:05:06;15.08;64.66
66035;HTU21D;52805;51.074;5.842;2022-09-29T17:07:38;14.99;65.21
66035;HTU21D;52805;51.074;5.842;2022-09-29T17:10:06;14.89;65.69
66035;HTU21D;52805;51.074;5.842;2022-09-29T17:12:34;14.82;66.18
66035;HTU21D;52805;51.074;5.842;2022-09-29T17:14:59;14.72;66.65
66035;HTU21D;52805;51.074;5.842;2022-09-29T17:17:27;14.64;66.93
66035;HTU21D;52805;51.074;5.842;2022-09-29T17:19:54;14.56;67.24
66035;HTU21D;52805;51.074;5.842;2022-09-29T17:22:32;14.49;67.71
66035;HTU21D;52805;51.074;5.842;2022-09-29T17:24:59;14.41;68.10
66035;HTU21D;52805;51.074;5.842;2022-09-29T17:27:27;14.36;68.42
66035;HTU21D;52805;51.074;5.842;2022-09-29T17:30:15;14.29;68.72
66035;HTU21D;52805;51.074;5.842;2022-09-29T17:32:44;14.21;68.93
66035;HTU21D;52805;51.074;5.842;2022-09-29T17:35:16;14.13;69.26
66035;HTU21D;52805;51.074;5.842;2022-09-29T17:37:43;14.05;69.49
66035;HTU21D;52805;51.074;5.842;2022-09-29T17:42:47;13.92;69.90
66035;HTU21D;52805;51.074;5.842;2022-09-29T17:45:14;13.82;70.32
66035;HTU21D;52805;51.074;5.842;2022-09-29T17:47:45;13.77;70.50
66035;HTU21D;52805;51.074;5.842;2022-09-29T17:50:35;13.71;70.66
66035;HTU21D;52805;51.074;5.842;2022-09-29T17:53:03;13.66;71.00
66035;HTU21D;52805;51.074;5.842;2022-09-29T17:55:31;13.61;71.30
66035;HTU21D;52805;51.074;5.842;2022-09-29T17:57:57;13.55;71.45
66035;HTU21D;52805;51.074;5.842;2022-09-29T18:00:30;13.54;71.52
66035;HTU21D;52805;51.074;5.842;2022-09-29T18:02:56;13.50;71.61
66035;HTU21D;52805;51.074;5.842;2022-09-29T18:05:26;13.46;71.61
66035;HTU21D;52805;51.074;5.842;2022-09-29T18:07:54;13.41;71.69
66035;HTU21D;52805;51.074;5.842;2022-09-29T18:12:52;13.33;72.00
66035;HTU21D;52805;51.074;5.842;2022-09-29T18:15:18;13.26;72.14
66035;HTU21D;52805;51.074;5.842;2022-09-29T18:17:44;13.22;72.37
66035;HTU21D;52805;51.074;5.842;2022-09-29T18:20:19;13.19;72.48
66035;HTU21D;52805;51.074;5.842;2022-09-29T18:22:45;13.14;72.64
66035;HTU21D;52805;51.074;5.842;2022-09-29T18:25:17;13.09;72.71
66035;HTU21D;52805;51.074;5.842;2022-09-29T18:27:47;13.03;72.93
66035;HTU21D;52805;51.074;5.842;2022-09-29T18:30:17;12.94;73.21
66035;HTU21D;52805;51.074;5.842;2022-09-29T18:32:46;12.90;73.47
66035;HTU21D;52805;51.074;5.842;2022-09-29T18:35:18;12.87;73.61
66035;HTU21D;52805;51.074;5.842;2022-09-29T18:37:44;12.82;73.64
66035;HTU21D;52805;51.074;5.842;2022-09-29T18:40:10;12.80;73.76
66035;HTU21D;52805;51.074;5.842;2022-09-29T18:42:45;12.75;73.89
66035;HTU21D;52805;51.074;5.842;2022-09-29T18:45:16;12.71;74.07
66035;HTU21D;52805;51.074;5.842;2022-09-29T18:47:48;12.65;74.28
66035;HTU21D;52805;51.074;5.842;2022-09-29T18:50:25;12.59;74.66
66035;HTU21D;52805;51.074;5.842;2022-09-29T18:52:53;12.53;74.90
66035;HTU21D;52805;51.074;5.842;2022-09-29T18:55:22;12.51;74.99
66035;HTU21D;52805;51.074;5.842;2022-09-29T18:57:49;12.49;75.03
66035;HTU21D;52805;51.074;5.842;2022-09-29T19:00:18;12.48;75.06
66035;HTU21D;52805;51.074;5.842;2022-09-29T19:02:45;12.45;75.14
66035;HTU21D;52805;51.074;5.842;2022-09-29T19:05:18;12.42;75.34
66035;HTU21D;52805;51.074;5.842;2022-09-29T19:07:47;12.41;75.46
66035;HTU21D;52805;51.074;5.842;2022-09-29T19:10:15;12.37;75.59